createdAt,value
2022-08-05T00:01:27.747Z,100060.56
2022-08-05T00:06:33.161Z,100061.97
2022-08-05T00:11:48.463Z,100057.28
2022-08-05T00:16:53.963Z,100058.97
2022-08-05T00:21:56.792Z,100051.19
2022-08-05T00:27:00.804Z,100053.44
2022-08-05T00:32:12.551Z,100007.69
2022-08-05T00:37:17.495Z,100050.25
2022-08-05T00:42:40.171Z,100060.13
2022-08-05T00:47:56.926Z,100040.72
2022-08-05T00:53:01.584Z,100062.53
2022-08-05T00:58:04.637Z,100040.22
2022-08-05T01:03:08.131Z,100065.00
2022-08-05T01:08:39.950Z,100065.81
2022-08-05T01:13:57.983Z,100052.03
2022-08-05T01:19:14.290Z,100055.78
2022-08-05T01:24:36.112Z,100049.84
2022-08-05T01:29:45.583Z,100057.38
2022-08-05T01:34:56.900Z,100055.09
2022-08-05T01:40:04.130Z,100050.31
2022-08-05T01:45:08.408Z,100053.81
2022-08-05T01:50:38.200Z,100049.16
2022-08-05T01:55:46.430Z,100048.91
2022-08-05T02:00:52.295Z,100053.97
2022-08-05T02:05:59.627Z,100034.94
2022-08-05T02:11:11.823Z,100049.66
2022-08-05T02:16:34.496Z,100038.19
2022-08-05T02:21:46.773Z,100052.13
2022-08-05T02:26:56.057Z,100056.31
2022-08-05T02:31:59.536Z,100060.81
2022-08-05T02:37:10.093Z,100068.59
2022-08-05T02:42:22.550Z,100060.06
2022-08-05T02:47:58.602Z,100055.13
2022-08-05T02:52:59.476Z,100061.84
2022-08-05T02:58:10.790Z,100070.25
2022-08-05T03:03:19.653Z,100076.19
2022-08-05T03:08:29.881Z,100075.97
2022-08-05T03:13:51.457Z,100076.19
2022-08-05T03:18:55.498Z,100080.13
2022-08-05T03:23:58.876Z,100082.03
2022-08-05T03:29:02.078Z,100079.78
2022-08-05T03:34:06.769Z,100075.38
2022-08-05T03:39:26.682Z,100086.22
2022-08-05T03:44:29.770Z,100084.41
2022-08-05T03:49:51.353Z,100101.78
2022-08-05T03:56:05.471Z,100099.03
2022-08-05T04:00:26.748Z,100102.81
2022-08-05T04:05:34.883Z,100100.53
2022-08-05T04:10:38.476Z,100081.59
2022-08-05T04:15:52.613Z,100089.97
2022-08-05T04:21:04.785Z,100097.81
2022-08-05T04:26:07.434Z,100105.41
2022-08-05T04:31:10.489Z,100106.69
2022-08-05T04:36:45.287Z,100106.97
2022-08-05T04:41:38.862Z,100103.28
2022-08-05T04:46:41.555Z,100101.31
2022-08-05T04:51:49.598Z,100096.69
2022-08-05T04:57:03.350Z,100103.47
2022-08-05T05:02:37.136Z,100107.41
2022-08-05T05:07:32.395Z,100105.09
2022-08-05T05:12:36.822Z,100101.59
2022-08-05T05:17:56.949Z,100086.41
2022-08-05T05:23:08.187Z,100087.94
2022-08-05T05:28:12.020Z,100106.97
2022-08-05T05:33:17.340Z,100102.94
2022-08-05T05:38:22.671Z,100101.38
2022-08-05T05:43:57.084Z,100101.75
2022-08-05T05:48:53.294Z,100104.66
2022-08-05T05:53:59.544Z,100111.66
2022-08-05T05:59:05.575Z,100103.13
2022-08-05T06:04:11.415Z,100111.63
2022-08-05T06:09:17.601Z,100107.88
2022-08-05T06:14:30.864Z,100110.31
2022-08-05T06:19:35.442Z,100095.31
2022-08-05T06:24:48.366Z,100107.56
2022-08-05T06:30:04.405Z,100113.53
2022-08-05T06:35:15.417Z,100106.09
2022-08-05T06:40:27.846Z,100126.69
2022-08-05T06:45:44.935Z,100120.28
2022-08-05T06:50:53.513Z,100129.97
2022-08-05T06:55:59.029Z,100123.91
2022-08-05T07:01:03.132Z,100125.94
2022-08-05T07:06:14.344Z,100123.47
2022-08-05T07:11:22.442Z,100114.41
2022-08-05T07:17:56.523Z,100112.44
2022-08-05T07:22:12.072Z,100126.84
2022-08-05T07:27:18.569Z,100129.22
2022-08-05T07:32:24.259Z,100109.28
2022-08-05T07:37:37.473Z,100113.22
2022-08-05T07:42:42.070Z,100121.22
2022-08-05T07:47:46.986Z,100117.69
2022-08-05T07:52:49.881Z,100091.81
2022-08-05T07:58:02.470Z,100113.75
2022-08-05T08:03:14.921Z,100111.09
2022-08-05T08:08:20.074Z,100101.41
2022-08-05T08:13:29.354Z,100104.34
2022-08-05T08:18:32.265Z,100098.91
2022-08-05T08:24:02.013Z,100102.13
2022-08-05T08:29:21.490Z,100098.78
2022-08-05T08:34:30.379Z,100095.72
2022-08-05T08:39:37.424Z,100103.59
2022-08-05T08:45:23.752Z,100096.25
2022-08-05T08:50:22.689Z,100097.50
2022-08-05T08:56:02.811Z,100105.13
2022-08-05T09:00:53.190Z,100095.13
2022-08-05T09:06:08.881Z,100088.19
2022-08-05T09:11:15.260Z,100087.66
2022-08-05T09:16:18.066Z,100091.00
2022-08-05T09:22:18.534Z,100068.19
2022-08-05T09:26:51.837Z,100062.53
2022-08-05T09:32:40.886Z,100067.16
2022-08-05T09:38:12.289Z,100067.28
2022-08-05T09:42:52.422Z,100073.72
2022-08-05T09:47:56.803Z,100062.16
2022-08-05T09:53:00.334Z,100056.84
2022-08-05T09:58:11.796Z,100059.00
2022-08-05T10:03:14.430Z,100053.75
2022-08-05T10:08:37.625Z,100055.22
2022-08-05T10:13:45.676Z,100061.38
2022-08-05T10:18:51.461Z,100065.78
2022-08-05T10:23:59.579Z,100068.63
2022-08-05T10:29:03.572Z,100050.97
2022-08-05T10:34:08.100Z,100054.59
2022-08-05T10:39:24.991Z,100059.06
2022-08-05T10:44:45.843Z,100065.16
2022-08-05T10:50:31.980Z,100052.25
2022-08-05T10:55:25.473Z,100070.84
2022-08-05T11:00:32.442Z,100068.69
2022-08-05T11:05:36.889Z,100067.63
2022-08-05T11:10:50.449Z,100063.31
2022-08-05T11:16:22.945Z,100060.50
2022-08-05T11:21:48.908Z,100057.31
2022-08-05T11:27:45.726Z,100045.91
2022-08-05T11:33:48.904Z,100043.47
2022-08-05T11:38:57.824Z,100037.50
2022-08-05T11:44:08.379Z,100017.22
2022-08-05T11:49:16.344Z,100025.53
2022-08-05T11:54:32.660Z,100008.25
2022-08-05T11:59:41.393Z,100029.19
2022-08-05T12:04:58.932Z,100022.97
2022-08-05T12:10:09.329Z,100018.72
2022-08-05T12:15:38.353Z,100018.03
2022-08-05T12:20:42.733Z,100021.38
2022-08-05T12:25:56.767Z,100016.59
2022-08-05T12:31:02.395Z,100013.13
2022-08-05T12:36:07.960Z,100013.81
2022-08-05T12:41:16.305Z,100020.34
2022-08-05T12:46:29.021Z,100004.06
2022-08-05T12:52:12.321Z,100005.31
2022-08-05T12:57:09.637Z,99999.28
2022-08-05T13:02:17.079Z,100008.97
2022-08-05T13:07:55.815Z,99999.28
2022-08-05T13:12:57.232Z,99992.94
2022-08-05T13:18:00.630Z,100001.00
2022-08-05T13:23:07.273Z,99995.25
2022-08-05T13:28:11.476Z,99988.59
2022-08-05T13:34:22.859Z,99994.81
2022-08-05T13:38:42.205Z,99984.69
2022-08-05T13:43:54.926Z,99991.72
2022-08-05T13:49:00.944Z,99980.31
2022-08-05T13:54:11.726Z,99977.38
2022-08-05T13:59:20.212Z,99974.25
2022-08-05T14:04:42.896Z,99971.66
2022-08-05T14:09:52.977Z,99957.22
2022-08-05T14:14:56.095Z,99960.94
2022-08-05T14:20:06.804Z,99958.09
2022-08-05T14:25:21.993Z,99959.03
2022-08-05T14:30:26.648Z,99944.44
2022-08-05T14:35:37.247Z,99963.97
2022-08-05T14:40:53.609Z,99967.28
2022-08-05T14:45:56.228Z,99917.22
2022-08-05T14:50:59.028Z,99953.41
2022-08-05T14:56:06.441Z,99946.31
2022-08-05T15:01:16.088Z,99947.50
2022-08-05T15:06:19.615Z,99958.00
2022-08-05T15:11:52.611Z,99930.56
2022-08-05T15:16:56.252Z,99951.78
2022-08-05T15:22:01.313Z,99947.94
2022-08-05T15:27:04.316Z,99948.47
2022-08-05T15:32:12.264Z,99929.66
2022-08-05T15:37:19.388Z,99946.16
2022-08-05T15:42:56.176Z,99953.59
2022-08-05T15:48:02.961Z,99956.47
2022-08-05T15:53:06.364Z,99948.38
2022-08-05T15:58:16.484Z,99947.44
2022-08-05T16:03:19.652Z,99949.13
2022-08-05T16:08:22.317Z,99956.78
2022-08-05T16:13:34.088Z,99959.25
2022-08-05T16:18:52.197Z,99953.97
2022-08-05T16:23:58.049Z,99958.13
2022-08-05T16:29:04.231Z,99943.59
2022-08-05T16:34:11.179Z,99954.94
2022-08-05T16:39:14.422Z,99976.06
2022-08-05T16:44:18.212Z,99976.66
2022-08-05T16:49:24.074Z,99977.13
2022-08-05T16:54:31.957Z,99989.09
2022-08-05T16:59:35.756Z,99997.53
2022-08-05T17:04:58.542Z,99997.13
2022-08-05T17:10:01.473Z,99990.16
2022-08-05T17:15:07.685Z,100003.00
2022-08-05T17:20:14.835Z,99989.84
2022-08-05T17:25:22.499Z,100012.19
2022-08-05T17:30:42.382Z,100010.84
2022-08-05T17:36:07.998Z,99997.09
2022-08-05T17:42:17.323Z,100001.63
2022-08-05T17:46:36.127Z,100006.00
2022-08-05T17:51:40.162Z,99982.03
2022-08-05T17:56:44.710Z,100012.91
2022-08-05T18:01:51.705Z,100002.41
2022-08-05T18:06:54.633Z,100001.81
2022-08-05T18:12:03.446Z,100021.09
2022-08-05T18:17:06.692Z,100030.09
2022-08-05T18:22:36.469Z,100034.34
2022-08-05T18:27:52.874Z,100040.94
2022-08-05T18:33:00.158Z,100044.16
2022-08-05T18:38:04.125Z,100037.09
2022-08-05T18:43:09.215Z,100043.09
2022-08-05T18:48:30.299Z,100043.22
2022-08-05T18:53:34.667Z,100035.66
2022-08-05T18:58:45.423Z,100032.38
2022-08-05T19:03:55.070Z,100038.84
2022-08-05T19:08:58.902Z,99991.69
2022-08-05T19:14:20.057Z,100032.78
2022-08-05T19:19:27.478Z,100044.03
2022-08-05T19:24:34.806Z,100034.09
2022-08-05T19:29:38.804Z,100011.16
2022-08-05T19:34:41.837Z,100038.38
2022-08-05T19:39:51.060Z,100047.16
2022-08-05T19:44:54.681Z,100055.31
2022-08-05T19:50:01.079Z,100040.97
2022-08-05T19:55:07.285Z,100042.59
2022-08-05T20:00:27.449Z,100051.53
2022-08-05T20:05:43.160Z,100043.50
2022-08-05T20:10:53.597Z,100033.69
2022-08-05T20:15:56.931Z,100037.19
2022-08-05T20:21:00.434Z,100041.59
2022-08-05T20:26:04.023Z,100026.16
2022-08-05T20:31:08.267Z,100032.28
2022-08-05T20:36:11.448Z,100028.81
2022-08-05T20:41:23.630Z,100025.41
2022-08-05T20:46:30.212Z,100029.34
2022-08-05T20:51:32.889Z,100030.66
2022-08-05T20:56:42.169Z,100031.06
2022-08-05T21:01:45.343Z,100021.13
2022-08-05T21:06:48.087Z,100021.84
2022-08-05T21:12:09.643Z,100024.38
2022-08-05T21:17:14.315Z,99999.00
2022-08-05T21:22:17.711Z,100017.97
2022-08-05T21:27:27.493Z,100028.50
2022-08-05T21:32:30.522Z,100017.53
2022-08-05T21:37:33.992Z,100015.41
2022-08-05T21:42:44.013Z,100022.06
2022-08-05T21:47:57.208Z,100012.81
2022-08-05T21:53:04.738Z,100024.81
2022-08-05T21:58:19.975Z,100026.31
2022-08-05T22:03:48.328Z,100027.84
2022-08-05T22:08:52.746Z,100024.19
2022-08-05T22:14:31.433Z,100022.16
2022-08-05T22:20:01.701Z,100010.41
2022-08-05T22:24:59.673Z,100025.78
2022-08-05T22:30:02.539Z,99999.31
2022-08-05T22:35:07.489Z,100027.25
2022-08-05T22:40:10.335Z,100028.09
2022-08-05T22:45:19.808Z,100014.22
2022-08-05T22:50:26.713Z,100016.63
2022-08-05T22:55:37.112Z,100019.22
2022-08-05T23:00:53.129Z,100021.47
2022-08-05T23:05:59.946Z,100018.59
2022-08-05T23:11:03.773Z,100003.56
2022-08-05T23:16:06.649Z,100021.66
2022-08-05T23:21:11.147Z,100028.91
2022-08-05T23:26:20.078Z,100027.34
2022-08-05T23:31:24.398Z,100018.59
2022-08-05T23:36:28.366Z,100032.69
2022-08-05T23:41:48.450Z,100025.78
2022-08-05T23:46:52.340Z,100033.63
2022-08-05T23:52:13.481Z,100020.28
2022-08-05T23:57:19.025Z,100042.44
